»·PEaware :: SBE250 KRIL-KAPA

SBE250 :: KRIL-KAPA

FLIGHT INFORMATION

Flight Status: Arrived
Operator: Unknown
More flights by this operator :: More flights under this callsign
Pilot: Anonymous 13363 (13363)
Aircraft: BOMBARDIER BD-100 CHALLENGER 300
(CL30)
More flights by this aircraft type
Origin: KRIL Garfield Co Regl
United States
Destination: KAPA Centennial
United States
More flights between these airports :: More routes between these airports
Route: +DBL POWDR8
File this flight plan on PilotEdge
Remarks:
Altitude:
(Current/Filed)
33,000ft
Speed:
(Current/Filed)
478kts
Departed: 01-Feb-18 07:51 PM
Arrived: 01-Feb-18 08:18 PM
Distance/Time
Traveled:
133nm/0:27
Distance/Time
To Go:
Arrived

Flight Plot

Page will automatically refresh every two minutes.

Flight plan parsing failed; only flown route is shown


Map Options




Map Legend


Flown Route
Filed Route
Departure Airport
Arrival Airport
Navaid (VOR, NDB)
Fix

Horizontal Profiles

Position Reports

Time Latitude Longitude Heading Altitude Ground
Speed
01-Feb-18 19:36 39.522907 -107.718060 0 5479ft 0kts
01-Feb-18 19:37 39.522907 -107.718060 0 5479ft 0kts
01-Feb-18 19:38 39.522907 -107.718060 0 5479ft 0kts
01-Feb-18 19:39 39.522907 -107.718060 0 5479ft 0kts
01-Feb-18 19:40 39.522907 -107.718060 0 5479ft 0kts
01-Feb-18 19:41 39.522907 -107.718060 0 5479ft 0kts
01-Feb-18 19:42 39.522907 -107.718060 0 5479ft 0kts
01-Feb-18 19:43 39.522907 -107.718060 0 5479ft 0kts
01-Feb-18 19:44 39.522907 -107.718060 0 5479ft 0kts
01-Feb-18 19:45 39.522907 -107.718060 0 5479ft 0kts
01-Feb-18 19:46 39.522907 -107.718060 0 5479ft 0kts
01-Feb-18 19:47 39.522907 -107.718060 0 5479ft 0kts
01-Feb-18 19:48 39.522907 -107.718060 0 5479ft 0kts
01-Feb-18 19:49 39.522908 -107.718060 0 5479ft 0kts
01-Feb-18 19:50 39.523058 -107.718061 358 5479ft 0kts
01-Feb-18 19:51 39.523141 -107.718065 357 5479ft 3kts
01-Feb-18 19:52 39.523797 -107.720566 271 5479ft 19kts
01-Feb-18 19:53 39.524984 -107.722201 353 5479ft 8kts
01-Feb-18 19:54 39.525476 -107.728964 267 5479ft 27kts
01-Feb-18 19:55 39.525326 -107.736389 267 5479ft 26kts
01-Feb-18 19:56 39.526357 -107.739703 89 5479ft 9kts
01-Feb-18 19:57 39.528257 -107.686839 85 7545ft 218kts
01-Feb-18 19:58 39.536872 -107.585173 86 10185ft 282kts
01-Feb-18 19:59 39.541493 -107.505216 87 10105ft 272kts
01-Feb-18 20:00 39.543045 -107.385785 91 14402ft 354kts
01-Feb-18 20:01 39.521836 -107.265245 118 17097ft 366kts
01-Feb-18 20:02 39.485009 -107.136387 104 19623ft 417kts
01-Feb-18 20:03 39.455184 -106.978759 99 22526ft 471kts
01-Feb-18 20:04 39.421956 -106.811059 101 25045ft 491kts
01-Feb-18 20:05 39.385741 -106.637361 102 27835ft 515kts
01-Feb-18 20:06 39.347517 -106.456244 102 30207ft 535kts
01-Feb-18 20:07 39.307855 -106.270024 103 32186ft 547kts
01-Feb-18 20:08 39.269939 -106.093675 103 33310ft 540kts
01-Feb-18 20:09 39.236202 -105.901911 88 33314ft 558kts
01-Feb-18 20:10 39.265173 -105.713220 56 32908ft 528kts
01-Feb-18 20:11 39.347031 -105.563323 42 31159ft 512kts
01-Feb-18 20:12 39.433152 -105.417591 42 29418ft 516kts
01-Feb-18 20:13 39.515342 -105.277719 43 26687ft 494kts
01-Feb-18 20:14 39.587661 -105.154174 42 23972ft 468kts
01-Feb-18 20:15 39.661332 -105.027913 42 21054ft 443kts
01-Feb-18 20:16 39.689418 -104.873105 78 17924ft 436kts
01-Feb-18 20:17 39.699150 -104.723628 78 14631ft 402kts
01-Feb-18 20:18 39.723569 -104.602567 34 12152ft 298kts
01-Feb-18 20:19 39.780507 -104.641394 269 10763ft 295kts
01-Feb-18 20:20 39.738054 -104.719802 227 9249ft 261kts
01-Feb-18 20:21 39.689712 -104.789335 225 8065ft 275kts
01-Feb-18 20:22 39.635727 -104.850698 187 8564ft 234kts
01-Feb-18 20:23 39.583738 -104.851443 176 5856ft 140kts
01-Feb-18 20:24 39.568896 -104.848175 10 5826ft 9kts
01-Feb-18 20:25 39.569159 -104.848165 358 5826ft 0kts
01-Feb-18 20:26 39.569159 -104.848165 358 5826ft 0kts
01-Feb-18 20:27 39.569159 -104.848165 358 5826ft 0kts
01-Feb-18 20:28 39.569159 -104.848165 358 5826ft 0kts
01-Feb-18 20:29 39.569159 -104.848165 358 5826ft 0kts
01-Feb-18 20:30 39.569159 -104.848165 358 5826ft 0kts
01-Feb-18 20:31 39.569159 -104.848165 358 5826ft 0kts
01-Feb-18 20:32 39.569159 -104.848165 358 5826ft 0kts
01-Feb-18 20:33 39.569159 -104.848165 358 5826ft 0kts
01-Feb-18 20:34 39.569159 -104.848165 358 5826ft 0kts
01-Feb-18 20:35 39.569159 -104.848165 358 5826ft 0kts
01-Feb-18 20:36 39.569159 -104.848165 358 5826ft 0kts
01-Feb-18 20:37 39.569159 -104.848165 358 5826ft 0kts
01-Feb-18 20:38 39.569159 -104.848165 358 5826ft 0kts

Navigation Log

Ident Type
Flight plan parsing failed, navigation log unavailable